Time;durP1;ratioP1;P1;durP2;ratioP2;P2;SDS_P1;SDS_P2;PMS_P1;PMS_P2;Temp;Humidity;BMP_temperature;BMP_pressure;BME280_temperature;BME280_humidity;BME280_pressure;Samples;Min_cycle;Max_cycle;Signal;HPM_P1;HPM_P2
2023/09/03 00:00:43;;;;;;;3.95;1.38;;;;;;;18.52;75.44;97350.66;6215417;23;20075;-78
2023/09/03 00:03:11;;;;;;;1.33;1.17;;;;;;;18.51;77.46;97339.25;6214988;23;20028;-78
2023/09/03 00:05:47;;;;;;;2.13;1.60;;;;;;;18.51;76.81;97338.44;6215180;23;20053;-78
2023/09/03 00:08:15;;;;;;;2.42;1.40;;;;;;;18.46;76.18;97341.72;6215123;23;20028;-78
2023/09/03 00:10:43;;;;;;;3.60;1.40;;;;;;;18.43;76.06;97338.69;6214992;23;20299;-78
2023/09/03 00:13:11;;;;;;;2.17;1.27;;;;;;;18.40;76.00;97345.22;6214315;23;20028;-79
2023/09/03 00:15:39;;;;;;;2.83;1.50;;;;;;;18.39;75.78;97342.78;6215016;23;20027;-78
2023/09/03 00:18:08;;;;;;;5.20;1.80;;;;;;;18.38;75.98;97341.19;6214965;23;20025;-78
2023/09/03 00:20:39;;;;;;;1.83;1.40;;;;;;;18.35;76.08;97345.06;6214823;23;20346;-78
2023/09/03 00:23:07;;;;;;;2.00;1.40;;;;;;;18.34;76.15;97338.13;6214445;23;20048;-78
2023/09/03 00:25:36;;;;;;;2.88;1.40;;;;;;;18.34;76.18;97338.13;6214702;23;20253;-78
2023/09/03 00:28:04;;;;;;;3.78;1.50;;;;;;;18.31;75.99;97334.09;6214649;23;20098;-78
2023/09/03 00:30:33;;;;;;;2.55;1.50;;;;;;;18.31;76.08;97343.84;6214840;23;20075;-78
2023/09/03 00:33:00;;;;;;;2.25;1.50;;;;;;;18.28;76.05;97339.00;6214384;23;20482;-78
2023/09/03 00:35:28;;;;;;;1.95;1.73;;;;;;;18.26;76.17;97335.78;6214622;23;20474;-78
2023/09/03 00:37:56;;;;;;;2.67;1.52;;;;;;;18.26;76.21;97341.06;6214900;23;20024;-78
2023/09/03 00:40:23;;;;;;;2.63;1.35;;;;;;;18.25;76.04;97339.44;6214875;23;20017;-78
2023/09/03 00:42:51;;;;;;;4.68;2.03;;;;;;;18.23;76.48;97338.81;6214601;23;20024;-78
2023/09/03 00:45:18;;;;;;;3.55;1.27;;;;;;;18.23;76.56;97341.47;6214555;23;20079;-78
2023/09/03 00:47:48;;;;;;;1.65;1.55;;;;;;;18.22;76.35;97340.66;6214867;23;20025;-78
2023/09/03 00:50:15;;;;;;;1.75;1.40;;;;;;;18.23;76.46;97346.75;6214346;23;20020;-78
2023/09/03 00:52:43;;;;;;;1.63;1.52;;;;;;;18.23;76.54;97349.38;6214062;23;20029;-78
2023/09/03 00:55:11;;;;;;;2.53;1.58;;;;;;;18.21;76.63;97349.59;6214297;23;20025;-78
2023/09/03 00:57:39;;;;;;;1.95;1.60;;;;;;;18.21;76.87;97354.88;6214901;23;20025;-78
2023/09/03 01:00:08;;;;;;;4.03;1.67;;;;;;;18.20;76.94;97352.47;6214383;23;20458;-78
2023/09/03 01:02:36;;;;;;;1.40;1.20;;;;;;;18.20;78.30;97347.97;6216849;23;20051;-78
2023/09/03 01:05:06;;;;;;;4.22;1.65;;;;;;;18.22;77.87;97347.78;6214440;23;20024;-78
2023/09/03 01:07:34;;;;;;;2.63;1.83;;;;;;;18.24;77.10;97343.09;6214479;23;20048;-78
2023/09/03 01:10:02;;;;;;;1.77;1.25;;;;;;;18.24;77.28;97343.09;6214698;23;20083;-78
2023/09/03 01:12:35;;;;;;;3.20;1.70;;;;;;;18.23;76.93;97352.81;6213948;23;20021;-78
2023/09/03 01:15:13;;;;;;;1.98;1.30;;;;;;;18.20;77.16;97357.75;6214756;23;20043;-78
2023/09/03 01:17:46;;;;;;;3.97;1.38;;;;;;;18.20;76.91;97355.91;6214674;23;20032;-78
2023/09/03 01:20:18;;;;;;;5.68;2.03;;;;;;;18.20;76.99;97360.38;6214455;23;20024;-78
2023/09/03 01:23:21;;;;;;;5.57;1.70;;;;;;;18.21;78.61;97359.34;6213949;23;20245;-78
2023/09/03 01:26:12;;;;;;;4.30;1.75;;;;;;;18.27;79.14;97369.88;6144079;23;20052;-78
2023/09/03 01:28:42;;;;;;;3.65;2.22;;;;;;;18.31;80.38;97371.06;6202884;23;20020;-78
2023/09/03 01:31:12;;;;;;;2.78;2.38;;;;;;;18.37;80.91;97374.72;6215634;23;20020;-78
2023/09/03 01:33:42;;;;;;;7.18;2.47;;;;;;;18.43;81.98;97373.88;6216141;23;20056;-78
2023/09/03 01:36:11;;;;;;;5.47;2.90;;;;;;;18.42;79.59;97377.50;6216259;23;20028;-78
2023/09/03 01:38:40;;;;;;;3.33;2.90;;;;;;;18.41;80.39;97364.50;6216559;23;20031;-78
2023/09/03 01:41:08;;;;;;;5.47;2.72;;;;;;;18.41;81.21;97365.34;6216105;23;20075;-78
2023/09/03 01:43:36;;;;;;;3.55;3.10;;;;;;;18.43;82.67;97365.94;6216112;23;20031;-78
2023/09/03 01:46:08;;;;;;;4.53;2.92;;;;;;;18.37;78.62;97369.44;6216055;23;20025;-78
2023/09/03 01:48:54;;;;;;;4.37;2.50;;;;;;;18.32;77.42;97369.22;6216584;23;20358;-78
2023/09/03 01:51:29;;;;;;;5.20;2.53;;;;;;;18.31;78.13;97371.06;6216440;23;20635;-78
2023/09/03 01:54:04;;;;;;;5.05;3.00;;;;;;;18.34;80.60;97375.13;6216342;23;20465;-78
2023/09/03 01:56:37;;;;;;;2.58;2.38;;;;;;;18.40;81.01;97369.00;6216247;23;20362;-78
2023/09/03 01:59:15;;;;;;;5.80;3.05;;;;;;;18.43;80.97;97373.03;6216448;23;20451;-78
2023/09/03 02:01:46;;;;;;;3.95;2.70;;;;;;;18.42;79.95;97372.22;6215753;23;20020;-78
2023/09/03 02:04:13;;;;;;;2.92;2.70;;;;;;;18.43;81.04;97378.31;6216114;23;20020;-78
2023/09/03 02:06:45;;;;;;;5.47;3.05;;;;;;;18.41;80.43;97381.19;6216406;23;20031;-78
2023/09/03 02:09:13;;;;;;;3.55;2.72;;;;;;;18.39;79.66;97387.69;6216066;23;20020;-78
2023/09/03 02:11:41;;;;;;;5.10;2.90;;;;;;;18.38;81.63;97392.16;6215751;23;20079;-78
2023/09/03 02:14:08;;;;;;;3.58;2.65;;;;;;;18.38;82.20;97386.06;6215929;23;20082;-78
2023/09/03 02:16:36;;;;;;;6.30;2.80;;;;;;;18.35;82.01;97392.59;6215666;23;20028;-78
2023/09/03 02:19:05;;;;;;;4.10;2.90;;;;;;;18.33;80.93;97384.06;6216217;23;20021;-78
2023/09/03 02:21:33;;;;;;;4.18;2.38;;;;;;;18.30;77.93;97384.47;6225832;23;20019;-78
2023/09/03 02:24:00;;;;;;;4.32;2.97;;;;;;;18.28;78.47;97387.34;6231236;23;20071;-78
2023/09/03 02:26:28;;;;;;;2.28;1.80;;;;;;;18.23;76.73;97383.72;6230069;23;20028;-78
2023/09/03 02:28:55;;;;;;;4.82;2.05;;;;;;;18.22;78.10;97379.47;6217293;23;20017;-78
2023/09/03 02:31:23;;;;;;;2.00;1.60;;;;;;;18.21;78.88;97396.31;6216324;23;20021;-78
2023/09/03 02:33:51;;;;;;;4.18;2.05;;;;;;;18.18;78.14;97389.63;6215999;23;20358;-78
2023/09/03 02:36:20;;;;;;;1.73;1.50;;;;;;;18.19;78.47;97393.06;6216211;23;20021;-78
2023/09/03 02:38:47;;;;;;;2.35;1.70;;;;;;;18.23;80.08;97383.72;6216085;23;20024;-78
2023/09/03 02:41:15;;;;;;;1.73;1.45;;;;;;;18.23;78.03;97389.00;6215542;23;20071;-78
2023/09/03 02:43:42;;;;;;;2.38;1.65;;;;;;;18.24;80.51;97395.91;6215593;23;20024;-79
2023/09/03 02:46:10;;;;;;;2.90;1.35;;;;;;;18.22;79.72;97405.88;6215657;23;20056;-79
2023/09/03 02:48:38;;;;;;;3.53;1.40;;;;;;;18.21;81.84;97402.41;6216065;23;20028;-78
2023/09/03 02:51:05;;;;;;;2.63;1.77;;;;;;;18.23;83.29;97407.47;6215826;23;20027;-78
2023/09/03 02:53:34;;;;;;;3.80;1.63;;;;;;;18.19;79.29;97404.47;6215593;23;20411;-78
2023/09/03 02:56:02;;;;;;;5.13;1.63;;;;;;;18.17;78.99;97408.31;6215935;23;20024;-78
2023/09/03 02:58:30;;;;;;;2.35;1.73;;;;;;;18.18;80.96;97413.41;6215390;23;20024;-78
2023/09/03 03:01:04;;;;;;;2.08;1.77;;;;;;;18.18;78.01;97407.31;6215705;23;20063;-78
2023/09/03 03:03:31;;;;;;;2.53;1.58;;;;;;;18.19;80.83;97406.28;6215230;23;20024;-78
2023/09/03 03:05:59;;;;;;;2.72;1.52;;;;;;;18.15;78.23;97405.91;6215198;23;20079;-78
2023/09/03 03:08:26;;;;;;;3.60;1.88;;;;;;;18.07;76.93;97412.22;6215373;23;20458;-78
2023/09/03 03:11:05;;;;;;;2.05;1.50;;;;;;;18.06;81.36;97421.19;6215205;23;20028;-78
2023/09/03 03:13:32;;;;;;;2.63;1.75;;;;;;;18.09;80.51;97415.47;6215413;23;20086;-78
2023/09/03 03:16:04;;;;;;;2.42;2.22;;;;;;;18.08;77.47;97408.56;6215708;23;20083;-78
2023/09/03 03:18:33;;;;;;;4.05;2.28;;;;;;;18.04;78.81;97407.38;6215795;23;20047;-78
2023/09/03 03:21:05;;;;;;;7.40;2.78;;;;;;;18.09;82.50;97404.09;6214894;23;20043;-78
2023/09/03 03:23:33;;;;;;;4.05;2.55;;;;;;;18.12;81.59;97403.66;6214994;23;20028;-78
2023/09/03 03:26:03;;;;;;;4.68;3.13;;;;;;;18.16;81.84;97406.72;6215127;23;20031;-78
2023/09/03 03:28:33;;;;;;;3.75;2.67;;;;;;;18.16;82.44;97404.06;6215874;23;20027;-78
2023/09/03 03:31:09;;;;;;;3.67;2.78;;;;;;;18.16;83.36;97404.06;6215267;23;20020;-78
2023/09/03 03:33:37;;;;;;;2.70;2.50;;;;;;;18.16;82.92;97406.72;6215210;23;20020;-78
2023/09/03 03:36:05;;;;;;;3.70;3.35;;;;;;;18.11;78.63;97412.63;6215237;23;20458;-78
2023/09/03 03:38:33;;;;;;;2.70;2.45;;;;;;;18.08;81.67;97429.69;6215094;23;20025;-78
2023/09/03 03:41:09;;;;;;;7.05;2.65;;;;;;;18.02;77.83;97435.81;6215294;23;20017;-78
2023/09/03 03:43:37;;;;;;;3.05;2.30;;;;;;;17.97;77.45;97443.53;6214790;23;20025;-78
2023/09/03 03:46:06;;;;;;;3.78;3.03;;;;;;;17.98;81.64;97436.44;6215451;23;20075;-78
2023/09/03 03:48:34;;;;;;;8.40;3.30;;;;;;;17.94;78.58;97436.03;6215036;23;20025;-78
2023/09/03 03:51:02;;;;;;;4.10;2.20;;;;;;;17.88;77.32;97444.78;6215072;23;20044;-78
2023/09/03 03:53:30;;;;;;;5.13;2.50;;;;;;;17.86;81.00;97441.53;6214642;23;20067;-78
2023/09/03 03:55:58;;;;;;;7.78;1.60;;;;;;;17.84;78.12;97438.28;6215319;23;20466;-78
2023/09/03 03:58:29;;;;;;;3.22;1.92;;;;;;;17.77;80.67;97445.38;6214973;23;20074;-78
2023/09/03 04:00:57;;;;;;;2.75;1.60;;;;;;;17.76;80.97;97446.41;6216062;23;20017;-78
2023/09/03 04:03:27;;;;;;;4.43;2.03;;;;;;;17.70;78.62;97448.84;6215309;23;20039;-78
2023/09/03 04:05:58;;;;;;;2.88;1.88;;;;;;;17.67;80.30;97454.53;6215451;23;20028;-77
2023/09/03 04:08:27;;;;;;;2.63;2.00;;;;;;;17.73;82.15;97462.66;6215012;23;20479;-78
2023/09/03 04:10:58;;;;;;;2.25;1.60;;;;;;;17.73;81.07;97462.66;6215445;23;20024;-78
2023/09/03 04:13:27;;;;;;;3.25;2.03;;;;;;;17.76;81.43;97467.53;6214197;23;20020;-78
2023/09/03 04:15:55;;;;;;;3.08;2.38;;;;;;;17.80;82.20;97468.72;6214687;23;20024;-79
2023/09/03 04:18:24;;;;;;;2.53;1.80;;;;;;;17.82;83.12;97467.53;6215130;23;20339;-78
2023/09/03 04:20:52;;;;;;;2.30;2.10;;;;;;;17.91;88.02;97461.03;6214738;23;20027;-78
2023/09/03 04:23:20;;;;;;;2.80;1.90;;;;;;;17.89;82.22;97462.25;6214752;23;20024;-78
2023/09/03 04:25:48;;;;;;;2.92;2.25;;;;;;;17.91;85.81;97466.28;6214879;23;20024;-78
2023/09/03 04:28:16;;;;;;;2.03;1.90;;;;;;;17.99;88.85;97473.16;6214989;23;20029;-78
2023/09/03 04:30:44;;;;;;;3.00;1.75;;;;;;;17.98;86.30;97466.28;6217699;23;20059;-78
2023/09/03 04:33:13;;;;;;;2.65;2.20;;;;;;;18.02;85.68;97475.41;6221162;23;20021;-78
2023/09/03 04:35:40;;;;;;;4.97;2.10;;;;;;;18.04;85.59;97465.44;6214619;23;20078;-78
2023/09/03 04:38:09;;;;;;;3.45;2.30;;;;;;;18.08;85.73;97466.66;6214931;23;20082;-78
2023/09/03 04:40:37;;;;;;;3.78;1.65;;;;;;;17.98;81.95;97466.28;6214202;23;20020;-78
2023/09/03 04:43:06;;;;;;;4.28;1.70;;;;;;;17.92;83.43;97462.63;6214162;23;20024;-78
2023/09/03 04:45:33;;;;;;;3.90;1.80;;;;;;;17.94;87.03;97465.06;6214972;23;20057;-78
2023/09/03 04:48:02;;;;;;;4.85;1.70;;;;;;;17.88;83.17;97466.69;6214771;23;20028;-78
2023/09/03 04:50:30;;;;;;;3.08;2.00;;;;;;;17.87;83.61;97469.56;6214711;23;20024;-78
2023/09/03 04:52:58;;;;;;;5.13;2.03;;;;;;;17.86;84.13;97473.19;6214716;23;20029;-78
2023/09/03 04:55:25;;;;;;;3.28;1.67;;;;;;;17.82;81.19;97469.34;6215137;23;20025;-78
2023/09/03 04:57:53;;;;;;;2.97;1.55;;;;;;;17.77;80.14;97475.22;6214719;23;20335;-78
2023/09/03 05:00:21;;;;;;;3.13;1.55;;;;;;;17.83;81.97;97489.47;6214736;23;20025;-78
2023/09/03 05:02:49;;;;;;;1.83;1.50;;;;;;;17.84;80.85;97493.72;6214228;23;20016;-78
2023/09/03 05:05:18;;;;;;;2.05;1.65;;;;;;;17.89;83.22;97496.56;6215283;23;20090;-78
2023/09/03 05:07:47;;;;;;;1.90;1.75;;;;;;;17.89;82.37;97505.28;6216736;23;20024;-78
2023/09/03 05:10:15;;;;;;;2.03;1.75;;;;;;;17.92;84.81;97511.97;6221428;23;20025;-78
2023/09/03 05:12:43;;;;;;;1.73;1.35;;;;;;;17.95;83.97;97514.22;6233122;23;20021;-78
2023/09/03 05:15:12;;;;;;;5.72;1.55;;;;;;;18.03;84.50;97521.91;6226579;23;20024;-78
2023/09/03 05:17:40;;;;;;;2.03;1.70;;;;;;;18.07;83.30;97523.09;6217311;23;20024;-78
2023/09/03 05:20:09;;;;;;;4.05;1.73;;;;;;;18.10;83.63;97530.63;6217042;23;20035;-78
2023/09/03 05:22:38;;;;;;;3.75;1.50;;;;;;;18.15;84.42;97537.09;6215916;23;20524;-78
2023/09/03 05:25:07;;;;;;;3.08;1.25;;;;;;;18.14;81.74;97527.56;6217185;23;20021;-78
2023/09/03 05:27:34;;;;;;;1.15;1.13;;;;;;;18.12;82.41;97519.84;6216748;23;20259;-78
2023/09/03 05:30:06;;;;;;;1.85;1.48;;;;;;;18.16;82.44;97520.25;6217004;23;20049;-78
2023/09/03 05:32:34;;;;;;;4.15;1.90;;;;;;;18.14;81.31;97528.38;6216647;23;20025;-78
2023/09/03 05:35:02;;;;;;;4.22;1.85;;;;;;;18.12;82.97;97518.00;6216525;23;20025;-78
2023/09/03 05:37:29;;;;;;;2.67;1.60;;;;;;;18.15;82.86;97519.44;6216454;23;20025;-78
2023/09/03 05:39:58;;;;;;;3.63;1.98;;;;;;;18.09;79.24;97518.44;6216560;23;20358;-78
2023/09/03 05:42:26;;;;;;;1.55;1.40;;;;;;;18.11;83.50;97523.53;6216120;23;20016;-78
2023/09/03 05:44:55;;;;;;;3.75;1.50;;;;;;;18.09;81.80;97515.78;6216724;23;20024;-78
2023/09/03 05:47:23;;;;;;;3.25;1.38;;;;;;;18.09;81.48;97515.78;6216660;23;20311;-78
2023/09/03 05:49:55;;;;;;;2.08;1.88;;;;;;;18.18;84.79;97515.56;6216076;23;20088;-78
2023/09/03 05:52:22;;;;;;;1.73;1.40;;;;;;;18.25;83.23;97516.34;6216755;23;20024;-78
2023/09/03 05:54:50;;;;;;;3.83;1.98;;;;;;;18.24;79.84;97512.13;6216252;23;20025;-78
2023/09/03 05:57:20;;;;;;;4.05;1.73;;;;;;;18.18;78.56;97511.09;6216379;23;20485;-78
2023/09/03 05:59:49;;;;;;;3.65;1.73;;;;;;;18.22;82.76;97508.88;6216507;23;20027;-78
2023/09/03 06:02:17;;;;;;;7.32;1.70;;;;;;;18.20;79.72;97497.69;6216445;23;20020;-78
2023/09/03 06:04:45;;;;;;;1.70;1.60;;;;;;;18.22;80.89;97509.66;6216145;23;20017;-78
2023/09/03 06:07:13;;;;;;;4.30;1.40;;;;;;;18.29;82.71;97507.00;6216276;23;20162;-78
2023/09/03 06:09:41;;;;;;;2.70;1.58;;;;;;;18.34;83.26;97515.09;6216299;23;20099;-79
2023/09/03 06:12:09;;;;;;;4.60;1.50;;;;;;;18.37;81.88;97513.91;6216224;23;20086;-78
2023/09/03 06:14:38;;;;;;;2.45;1.67;;;;;;;18.39;82.34;97519.75;6216658;23;20029;-78
2023/09/03 06:17:07;;;;;;;2.63;1.40;;;;;;;18.38;81.26;97518.97;6216229;23;20023;-78
2023/09/03 06:19:35;;;;;;;1.75;1.23;;;;;;;18.43;83.16;97505.94;6216314;23;20021;-78
2023/09/03 06:22:03;;;;;;;2.40;1.90;;;;;;;18.50;83.91;97524.41;6216345;23;20086;-78
2023/09/03 06:24:30;;;;;;;3.15;1.63;;;;;;;18.56;83.24;97528.84;6215895;23;20075;-79
2023/09/03 06:26:58;;;;;;;3.50;1.40;;;;;;;18.59;82.23;97531.09;6216301;23;20082;-78
2023/09/03 06:29:26;;;;;;;1.95;1.50;;;;;;;18.64;82.19;97533.09;6216097;23;20021;-78
2023/09/03 06:31:55;;;;;;;3.88;1.50;;;;;;;18.67;79.38;97537.94;6215892;23;20078;-78
2023/09/03 06:34:25;;;;;;;2.53;1.60;;;;;;;18.66;78.94;97539.78;6215727;23;20024;-78
2023/09/03 06:36:52;;;;;;;2.60;1.60;;;;;;;18.68;80.08;97550.94;6215584;23;20419;-78
2023/09/03 06:39:20;;;;;;;3.55;1.60;;;;;;;18.73;80.44;97552.97;6216010;23;20021;-78
2023/09/03 06:41:48;;;;;;;1.60;1.50;;;;;;;18.80;81.11;97564.34;6221598;23;20462;-78
2023/09/03 06:44:16;;;;;;;2.17;1.40;;;;;;;18.85;81.62;97561.91;6219121;23;20470;-78
2023/09/03 06:46:44;;;;;;;2.50;1.45;;;;;;;18.87;79.95;97570.44;6216244;23;20406;-78
2023/09/03 06:49:12;;;;;;;1.55;1.30;;;;;;;18.93;82.44;97571.41;6216013;23;20185;-78
2023/09/03 06:51:40;;;;;;;5.65;4.18;;;;;;;19.01;82.62;97580.94;6216035;23;20025;-78
2023/09/03 06:54:08;;;;;;;3.80;3.33;;;;;;;19.07;81.47;97585.38;6215471;23;20021;-79
2023/09/03 06:56:36;;;;;;;2.20;1.52;;;;;;;19.10;80.78;97582.31;6215755;23;20017;-78
2023/09/03 06:59:03;;;;;;;2.78;1.52;;;;;;;19.12;80.16;97590.84;6216013;23;20020;-78
2023/09/03 07:01:31;;;;;;;3.95;1.70;;;;;;;19.14;79.38;97602.81;6215461;23;20070;-78
2023/09/03 07:03:59;;;;;;;2.67;1.80;;;;;;;19.20;81.51;97600.34;6216044;23;20059;-78
2023/09/03 07:06:29;;;;;;;2.08;1.67;;;;;;;19.26;80.95;97605.63;6215997;23;20025;-78
2023/09/03 07:08:56;;;;;;;3.03;1.35;;;;;;;19.26;78.57;97605.63;6216030;23;20020;-79
2023/09/03 07:11:24;;;;;;;2.30;1.40;;;;;;;19.28;77.60;97602.75;6215679;23;20067;-78
2023/09/03 07:13:52;;;;;;;1.60;1.50;;;;;;;19.32;78.15;97607.41;6215793;23;20331;-78
2023/09/03 07:16:20;;;;;;;3.42;1.40;;;;;;;19.37;78.58;97611.25;6215522;23;20074;-78
2023/09/03 07:18:48;;;;;;;2.40;1.60;;;;;;;19.41;76.68;97607.16;6215604;23;20470;-78
2023/09/03 07:21:16;;;;;;;4.38;3.00;;;;;;;19.44;76.61;97615.47;6215400;23;20013;-78
2023/09/03 07:23:45;;;;;;;4.55;3.00;;;;;;;19.51;78.49;97623.38;6215332;23;20475;-78
2023/09/03 07:26:14;;;;;;;2.30;1.92;;;;;;;19.58;78.00;97626.78;6215645;23;20039;-78
2023/09/03 07:28:42;;;;;;;5.93;1.80;;;;;;;19.63;76.65;97629.59;6215096;23;20043;-78
2023/09/03 07:31:10;;;;;;;1.58;1.48;;;;;;;19.68;76.24;97639.56;6215421;23;20350;-78
2023/09/03 07:33:38;;;;;;;3.15;1.58;;;;;;;19.72;75.96;97632.81;6215039;23;20553;-78
2023/09/03 07:36:10;;;;;;;1.98;1.65;;;;;;;19.80;77.98;97642.34;6215717;23;20028;-78
2023/09/03 07:38:38;;;;;;;;;;;;;;;19.89;77.50;97641.03;6216627;23;20033;-78
2023/09/03 07:41:08;;;;;;;2.05;1.58;;;;;;;19.92;75.89;97636.13;6216053;23;20235;-78
2023/09/03 07:43:36;;;;;;;6.10;2.08;;;;;;;19.96;75.26;97628.56;6215570;23;20443;-78
2023/09/03 07:46:05;;;;;;;3.70;1.70;;;;;;;20.01;74.85;97623.44;6215587;23;20016;-78
2023/09/03 07:48:34;;;;;;;2.53;1.55;;;;;;;20.10;74.20;97626.63;6215225;23;20020;-78
2023/09/03 07:51:02;;;;;;;3.67;1.58;;;;;;;20.21;73.56;97635.69;6215499;23;20056;-78
2023/09/03 07:53:32;;;;;;;5.85;2.00;;;;;;;20.31;73.23;97639.47;6214910;23;20016;-78
2023/09/03 07:56:00;;;;;;;3.00;1.70;;;;;;;20.46;72.25;97641.75;6215265;23;20196;-78
2023/09/03 07:58:30;;;;;;;1.48;1.27;;;;;;;20.62;72.13;97643.06;6222741;23;20036;-78
2023/09/03 08:00:58;;;;;;;1.92;1.60;;;;;;;20.78;71.69;97639.81;6232734;23;20051;-78
2023/09/03 08:03:32;;;;;;;1.65;1.40;;;;;;;20.96;71.17;97636.34;6222538;23;20458;-78
2023/09/03 08:06:00;;;;;;;8.32;6.43;;;;;;;21.11;70.09;97635.97;6216390;23;20044;-78
2023/09/03 08:08:29;;;;;;;32.13;23.35;;;;;;;21.24;72.15;97637.63;6215658;23;20028;-78
2023/09/03 08:10:57;;;;;;;8.70;4.88;;;;;;;21.36;70.48;97633.19;6215455;23;20020;-78
2023/09/03 08:13:25;;;;;;;2.05;1.80;;;;;;;21.53;69.27;97635.22;6215334;23;20017;-78
2023/09/03 08:15:54;;;;;;;2.55;1.90;;;;;;;21.69;69.21;97655.84;6215699;23;20430;-78
2023/09/03 08:18:23;;;;;;;3.05;1.80;;;;;;;21.81;68.66;97659.31;6215721;23;20335;-79
2023/09/03 08:20:52;;;;;;;2.38;1.75;;;;;;;21.96;67.61;97661.53;6215822;23;20430;-79
2023/09/03 08:23:20;;;;;;;3.15;2.03;;;;;;;22.11;66.83;97653.13;6215774;23;20095;-79
2023/09/03 08:25:48;;;;;;;1.95;1.60;;;;;;;22.29;65.94;97659.41;6215351;23;20028;-78
2023/09/03 08:28:17;;;;;;;2.75;1.50;;;;;;;22.52;65.70;97659.41;6215802;23;20055;-78
2023/09/03 08:30:47;;;;;;;5.32;2.92;;;;;;;22.78;64.94;97663.44;6215775;23;20051;-78
2023/09/03 08:33:16;;;;;;;5.40;2.53;;;;;;;23.04;63.92;97659.44;6216069;23;20025;-79
2023/09/03 08:35:45;;;;;;;3.58;1.90;;;;;;;23.31;63.46;97669.56;6215679;23;20059;-78
2023/09/03 08:38:13;;;;;;;1.50;1.40;;;;;;;23.58;62.59;97669.78;6216001;23;20374;-78
2023/09/03 08:40:43;;;;;;;1.50;1.40;;;;;;;24.02;60.77;97674.56;6215481;23;20091;-78
2023/09/03 08:43:15;;;;;;;3.53;1.20;;;;;;;24.60;58.71;97675.19;6215130;23;20013;-79
2023/09/03 08:45:50;;;;;;;2.20;1.30;;;;;;;25.28;56.94;97673.94;6215736;23;20017;-78
2023/09/03 08:48:20;;;;;;;3.97;1.92;;;;;;;25.89;56.14;97673.78;6215894;23;20046;-78
2023/09/03 08:50:49;;;;;;;4.78;3.95;;;;;;;26.44;54.38;97679.00;6216048;23;20017;-78
2023/09/03 08:53:17;;;;;;;2.30;2.05;;;;;;;27.00;53.02;97668.59;6227855;23;20051;-79
2023/09/03 08:55:45;;;;;;;2.75;1.73;;;;;;;27.43;50.98;97674.66;6215096;23;20024;-79
2023/09/03 08:58:15;;;;;;;3.63;1.67;;;;;;;27.87;49.86;97676.09;6214743;23;20024;-79
2023/09/03 09:00:43;;;;;;;4.13;1.27;;;;;;;28.34;47.83;97675.81;6214420;23;20474;-79
2023/09/03 09:03:11;;;;;;;1.65;1.40;;;;;;;28.74;48.44;97687.59;6213829;23;20075;-79
2023/09/03 09:05:42;;;;;;;2.53;1.30;;;;;;;28.95;47.09;97687.50;6214723;23;20025;-79
2023/09/03 09:08:10;;;;;;;1.30;1.20;;;;;;;29.11;46.66;97682.94;6214791;23;20021;-79
2023/09/03 09:10:47;;;;;;;3.42;1.33;;;;;;;29.41;45.37;97694.59;6214517;23;20075;-80
2023/09/03 09:13:20;;;;;;;2.58;1.52;;;;;;;29.67;45.07;97689.88;6214098;23;20470;-80
2023/09/03 09:15:48;;;;;;;1.65;1.42;;;;;;;29.82;44.79;97679.03;6214396;23;20020;-80
2023/09/03 09:18:16;;;;;;;2.45;1.20;;;;;;;29.79;44.53;97687.69;6214910;23;20021;-80
2023/09/03 09:20:47;;;;;;;2.45;1.23;;;;;;;29.81;44.09;97687.41;6214794;23;20017;-80
2023/09/03 09:23:21;;;;;;;1.30;1.20;;;;;;;29.93;42.88;97685.94;6214739;23;20024;-80
2023/09/03 09:25:50;;;;;;;1.58;1.17;;;;;;;30.08;42.57;97690.41;6214961;23;20266;-81
2023/09/03 09:28:17;;;;;;;1.38;1.27;;;;;;;30.17;42.37;97693.28;6214673;23;20025;-80
2023/09/03 09:30:55;;;;;;;2.33;1.00;;;;;;;30.13;42.52;97690.38;6214263;23;20463;-80
2023/09/03 09:33:23;;;;;;;1.95;0.90;;;;;;;30.01;42.69;97675.69;6214253;23;20027;-80
2023/09/03 09:35:53;;;;;;;1.15;0.93;;;;;;;29.85;44.30;97688.47;6214841;23;20021;-80
2023/09/03 09:38:35;;;;;;;7.40;6.13;;;;;;;29.61;43.67;97688.28;6214908;23;20017;-81
2023/09/03 09:41:21;;;;;;;1.63;1.15;;;;;;;29.33;44.68;97691.41;6214835;23;20052;-79
2023/09/03 09:43:48;;;;;;;3.35;2.78;;;;;;;29.09;45.52;97688.56;6214624;23;20028;-80
2023/09/03 09:46:25;;;;;;;2.92;1.20;;;;;;;28.85;45.91;97684.88;6214895;23;20025;-79
2023/09/03 09:48:57;;;;;;;2.35;1.08;;;;;;;28.55;46.02;97679.28;6215536;23;20052;-80
2023/09/03 09:51:27;;;;;;;0.95;0.90;;;;;;;28.33;46.76;97682.25;6215186;23;20024;-79
2023/09/03 09:53:56;;;;;;;0.88;0.63;;;;;;;28.19;46.78;97683.09;6216701;23;20354;-80
2023/09/03 09:56:28;;;;;;;0.73;0.73;;;;;;;28.19;47.51;97681.22;6217135;23;20021;-78
2023/09/03 09:58:58;;;;;;;0.77;0.77;;;;;;;28.29;46.46;97675.03;6216636;23;20413;-79
2023/09/03 10:01:27;;;;;;;2.95;0.73;;;;;;;28.42;46.56;97669.09;6217469;23;20111;-79
2023/09/03 10:03:55;;;;;;;1.70;0.60;;;;;;;28.53;45.92;97672.59;6216886;23;20107;-80
2023/09/03 10:06:24;;;;;;;0.73;0.73;;;;;;;28.60;45.16;97670.44;6217289;23;20017;-80
2023/09/03 10:08:52;;;;;;;0.80;0.80;;;;;;;28.60;45.35;97675.00;6217151;23;20347;-79
2023/09/03 10:11:21;;;;;;;1.23;0.82;;;;;;;28.59;46.32;97674.19;6216228;23;20082;-81
2023/09/03 10:13:49;;;;;;;2.47;0.90;;;;;;;28.62;46.05;97670.97;6217008;23;20403;-81
2023/09/03 10:16:20;;;;;;;0.73;0.57;;;;;;;28.66;45.36;97680.06;6216761;23;20470;-80
2023/09/03 10:18:50;;;;;;;1.15;0.88;;;;;;;28.69;45.14;97681.44;6216483;23;20025;-80
2023/09/03 10:21:21;;;;;;;0.90;0.90;;;;;;;28.64;45.46;97674.19;6216324;23;20482;-79
2023/09/03 10:23:56;;;;;;;1.77;0.73;;;;;;;28.57;45.33;97680.91;6216689;23;20020;-80
2023/09/03 10:26:29;;;;;;;1.30;0.82;;;;;;;28.48;45.98;97683.34;6216222;23;20103;-81
2023/09/03 10:29:04;;;;;;;0.95;0.95;;;;;;;28.45;46.19;97678.50;6217152;23;20020;-79
2023/09/03 10:31:34;;;;;;;0.90;0.90;;;;;;;28.42;46.85;97679.03;6216302;23;20024;-79
2023/09/03 10:34:02;;;;;;;0.90;0.90;;;;;;;28.43;47.03;97670.72;6216040;23;20025;-79
2023/09/03 10:36:30;;;;;;;0.88;0.60;;;;;;;28.40;46.34;97675.81;6217048;23;20059;-79
2023/09/03 10:39:22;;;;;;;0.98;0.85;;;;;;;28.34;45.54;97665.09;6217612;23;20055;-80
2023/09/03 10:42:10;;;;;;;1.52;1.00;;;;;;;28.32;47.02;97669.13;6217232;23;20024;-80
2023/09/03 10:44:42;;;;;;;1.30;0.70;;;;;;;28.26;45.13;97673.69;6215760;23;20017;-80
2023/09/03 10:47:13;;;;;;;0.60;0.55;;;;;;;28.20;45.80;97666.72;6219054;23;20024;-80
2023/09/03 10:49:41;;;;;;;;;;;;;;;28.15;46.69;97669.41;6219183;23;20027;-81
2023/09/03 10:52:34;;;;;;;0.82;0.80;;;;;;;27.98;46.73;97669.66;6217431;23;20261;-80
2023/09/03 10:55:20;;;;;;;2.47;0.80;;;;;;;27.82;47.62;97670.72;6216647;23;20084;-80
2023/09/03 10:57:49;;;;;;;1.05;0.90;;;;;;;27.74;47.59;97672.03;6216225;23;20060;-78
2023/09/03 11:00:21;;;;;;;0.75;0.75;;;;;;;27.70;48.27;97669.09;6216927;23;20024;-79
2023/09/03 11:03:18;;;;;;;0.60;0.60;;;;;;;27.77;49.67;97673.38;6217726;23;20339;-80
2023/09/03 11:06:18;;;;;;;1.35;1.13;;;;;;;27.74;47.38;97670.16;6216557;23;20040;-81
2023/09/03 11:08:46;;;;;;;1.00;0.85;;;;;;;27.75;47.60;97681.72;6216226;23;20032;-80
2023/09/03 11:11:22;;;;;;;0.80;0.80;;;;;;;27.76;47.69;97688.66;6216004;23;20469;-80
2023/09/03 11:13:51;;;;;;;0.77;0.77;;;;;;;27.76;49.02;97685.97;6216015;23;20013;-79
2023/09/03 11:16:19;;;;;;;1.52;1.10;;;;;;;27.79;47.95;97685.47;6216512;23;20020;-81
2023/09/03 11:18:50;;;;;;;1.08;0.80;;;;;;;27.83;47.15;97688.41;6216344;23;20074;-81
2023/09/03 11:21:18;;;;;;;1.40;0.73;;;;;;;27.87;48.07;97684.16;6216204;23;20021;-80
2023/09/03 11:23:59;;;;;;;0.60;0.60;;;;;;;27.89;46.98;97677.44;6216742;23;20090;-79
2023/09/03 11:26:28;;;;;;;0.70;0.70;;;;;;;27.91;47.07;97686.03;6216256;23;20020;-80
2023/09/03 11:28:56;;;;;;;2.40;0.60;;;;;;;27.94;46.08;97679.31;6216258;23;20024;-79
2023/09/03 11:31:25;;;;;;;1.60;0.50;;;;;;;27.92;45.69;97684.97;6216126;23;20028;-80
2023/09/03 11:33:53;;;;;;;2.40;0.40;;;;;;;27.81;45.65;97680.63;6215555;23;20028;-80
2023/09/03 11:36:21;;;;;;;1.02;0.45;;;;;;;27.66;45.63;97678.75;6215876;23;20529;-80
2023/09/03 11:38:50;;;;;;;0.68;0.50;;;;;;;27.50;45.88;97677.09;6216000;23;20072;-80
2023/09/03 11:41:18;;;;;;;0.85;0.57;;;;;;;27.34;46.17;97676.25;6216004;23;20450;-79
2023/09/03 11:43:48;;;;;;;1.15;0.47;;;;;;;27.17;46.04;97672.97;6216449;23;20030;-80
2023/09/03 11:46:17;;;;;;;0.45;0.40;;;;;;;27.05;46.43;97671.31;6215770;23;20071;-80